Terminal Aerodrome Forecast
Issued by NWS

Home | Current Version | Previous Version | Text Only | Print | Product List | Glossary On
Versions: 1 2 3 4 5 6 7 8 9 10 11 12 13 14 15 16 17 18 19 20 21 22 23 24 25 26 27 28 29 30 31 32 33 34 35 36 37 38 39 40 41 42 43 44 45 46 47 48 49 50
000
FTUS45 KBOU 190205 AAB
TAFBJC
TAF AMD
KBJC 190205Z 1902/1924 30010KT P6SM VCSH SCT030 SCT080 BKN120
      TEMPO 1905/1909 4SM -SHRASN BR BKN015
     FM191100 35012G20KT P6SM VCSH SCT025 BKN050
     FM191500 01014G24KT P6SM SCT035 BKN060
     FM191800 03014G24KT P6SM SCT050 SCT080 BKN120=

USA.gov is the U.S. government's official web portal to all federal, state and local government web resources and services.